sensor_id;sensor_type;location;lat;lon;timestamp;temperature;humidity
78455;SHT31;67751;51.986;5.696;2023-11-21T00:01:17;11.6;72.8
78455;SHT31;67751;51.986;5.696;2023-11-21T00:03:48;11.5;73.1
78455;SHT31;67751;51.986;5.696;2023-11-21T00:06:18;11.5;73.2
78455;SHT31;67751;51.986;5.696;2023-11-21T00:08:47;11.5;72.8
78455;SHT31;67751;51.986;5.696;2023-11-21T00:11:17;11.5;73.2
78455;SHT31;67751;51.986;5.696;2023-11-21T00:13:46;11.5;72.8
78455;SHT31;67751;51.986;5.696;2023-11-21T00:16:16;11.5;72.5
78455;SHT31;67751;51.986;5.696;2023-11-21T00:18:46;11.4;72.4
78455;SHT31;67751;51.986;5.696;2023-11-21T00:21:15;11.4;72.7
78455;SHT31;67751;51.986;5.696;2023-11-21T00:23:45;11.4;72.6
78455;SHT31;67751;51.986;5.696;2023-11-21T00:26:15;11.4;72.5
78455;SHT31;67751;51.986;5.696;2023-11-21T00:28:45;11.4;72.8
78455;SHT31;67751;51.986;5.696;2023-11-21T00:31:14;11.3;72.3
78455;SHT31;67751;51.986;5.696;2023-11-21T00:33:44;11.3;72.9
78455;SHT31;67751;51.986;5.696;2023-11-21T00:36:13;11.3;72.6
78455;SHT31;67751;51.986;5.696;2023-11-21T00:38:44;11.3;72.8
78455;SHT31;67751;51.986;5.696;2023-11-21T00:41:13;11.3;72.7
78455;SHT31;67751;51.986;5.696;2023-11-21T00:43:43;11.3;72.5
78455;SHT31;67751;51.986;5.696;2023-11-21T00:46:13;11.2;72.2
78455;SHT31;67751;51.986;5.696;2023-11-21T00:48:43;11.2;72.5
78455;SHT31;67751;51.986;5.696;2023-11-21T00:51:13;11.2;72.2
78455;SHT31;67751;51.986;5.696;2023-11-21T00:53:44;11.2;72.2
78455;SHT31;67751;51.986;5.696;2023-11-21T00:56:14;11.1;72.3
78455;SHT31;67751;51.986;5.696;2023-11-21T00:58:44;11.1;72.8
78455;SHT31;67751;51.986;5.696;2023-11-21T01:01:17;11.1;71.9
78455;SHT31;67751;51.986;5.696;2023-11-21T01:03:47;11.1;72.2
78455;SHT31;67751;51.986;5.696;2023-11-21T01:06:17;11.1;71.9
78455;SHT31;67751;51.986;5.696;2023-11-21T01:08:47;11.1;72.3
78455;SHT31;67751;51.986;5.696;2023-11-21T01:11:16;11.0;72.9
78455;SHT31;67751;51.986;5.696;2023-11-21T01:13:46;11.0;72.1
78455;SHT31;67751;51.986;5.696;2023-11-21T01:16:15;11.0;72.0
78455;SHT31;67751;51.986;5.696;2023-11-21T01:18:45;11.0;72.8
78455;SHT31;67751;51.986;5.696;2023-11-21T01:21:15;11.0;72.5
78455;SHT31;67751;51.986;5.696;2023-11-21T01:23:45;10.9;72.9
78455;SHT31;67751;51.986;5.696;2023-11-21T01:26:17;10.9;72.7
78455;SHT31;67751;51.986;5.696;2023-11-21T01:28:46;10.9;73.0
78455;SHT31;67751;51.986;5.696;2023-11-21T01:31:16;10.9;72.6
78455;SHT31;67751;51.986;5.696;2023-11-21T01:33:47;10.9;72.8
78455;SHT31;67751;51.986;5.696;2023-11-21T01:36:17;10.9;72.7
78455;SHT31;67751;51.986;5.696;2023-11-21T01:38:47;10.9;73.4
78455;SHT31;67751;51.986;5.696;2023-11-21T01:41:17;10.9;73.8
78455;SHT31;67751;51.986;5.696;2023-11-21T01:43:49;10.9;74.0
78455;SHT31;67751;51.986;5.696;2023-11-21T01:46:21;10.9;73.9
78455;SHT31;67751;51.986;5.696;2023-11-21T01:48:52;10.9;74.1
78455;SHT31;67751;51.986;5.696;2023-11-21T01:51:25;10.9;73.9
78455;SHT31;67751;51.986;5.696;2023-11-21T01:53:55;10.9;73.9
78455;SHT31;67751;51.986;5.696;2023-11-21T01:56:25;10.9;74.1
78455;SHT31;67751;51.986;5.696;2023-11-21T01:58:58;10.9;73.8
78455;SHT31;67751;51.986;5.696;2023-11-21T02:01:27;10.9;74.4
78455;SHT31;67751;51.986;5.696;2023-11-21T02:03:57;10.9;73.4
78455;SHT31;67751;51.986;5.696;2023-11-21T02:06:29;10.9;73.9
78455;SHT31;67751;51.986;5.696;2023-11-21T02:08:59;10.9;73.9
78455;SHT31;67751;51.986;5.696;2023-11-21T02:11:32;10.9;73.3
78455;SHT31;67751;51.986;5.696;2023-11-21T02:14:04;10.9;73.4
78455;SHT31;67751;51.986;5.696;2023-11-21T02:16:36;10.9;73.0
78455;SHT31;67751;51.986;5.696;2023-11-21T02:19:07;10.9;73.1
78455;SHT31;67751;51.986;5.696;2023-11-21T02:21:40;10.9;73.3
78455;SHT31;67751;51.986;5.696;2023-11-21T02:24:12;10.9;73.8
78455;SHT31;67751;51.986;5.696;2023-11-21T02:26:41;10.9;73.4
78455;SHT31;67751;51.986;5.696;2023-11-21T02:29:11;10.9;73.6
78455;SHT31;67751;51.986;5.696;2023-11-21T02:31:45;10.9;73.7
78455;SHT31;67751;51.986;5.696;2023-11-21T02:34:17;10.9;73.8
78455;SHT31;67751;51.986;5.696;2023-11-21T02:36:48;10.9;73.7
78455;SHT31;67751;51.986;5.696;2023-11-21T02:39:18;10.9;73.7
78455;SHT31;67751;51.986;5.696;2023-11-21T02:41:50;10.9;73.9
78455;SHT31;67751;51.986;5.696;2023-11-21T02:44:19;10.9;74.2
78455;SHT31;67751;51.986;5.696;2023-11-21T02:46:49;10.9;74.1
78455;SHT31;67751;51.986;5.696;2023-11-21T02:49:18;10.9;74.3
78455;SHT31;67751;51.986;5.696;2023-11-21T02:51:48;10.9;74.7
78455;SHT31;67751;51.986;5.696;2023-11-21T02:54:19;10.9;74.7
78455;SHT31;67751;51.986;5.696;2023-11-21T02:56:49;10.9;74.6
78455;SHT31;67751;51.986;5.696;2023-11-21T02:59:19;10.9;74.4
78455;SHT31;67751;51.986;5.696;2023-11-21T03:01:48;10.9;74.6
78455;SHT31;67751;51.986;5.696;2023-11-21T03:04:18;10.9;74.5
78455;SHT31;67751;51.986;5.696;2023-11-21T03:06:48;10.9;74.1
78455;SHT31;67751;51.986;5.696;2023-11-21T03:09:18;10.9;74.2
78455;SHT31;67751;51.986;5.696;2023-11-21T03:11:48;10.9;74.6
78455;SHT31;67751;51.986;5.696;2023-11-21T03:14:17;10.9;74.8
78455;SHT31;67751;51.986;5.696;2023-11-21T03:16:47;10.9;74.7
78455;SHT31;67751;51.986;5.696;2023-11-21T03:19:17;10.9;74.1
78455;SHT31;67751;51.986;5.696;2023-11-21T03:21:46;10.9;74.1
78455;SHT31;67751;51.986;5.696;2023-11-21T03:24:16;10.9;74.8
78455;SHT31;67751;51.986;5.696;2023-11-21T03:26:47;10.9;74.7
78455;SHT31;67751;51.986;5.696;2023-11-21T03:29:17;10.9;74.8
78455;SHT31;67751;51.986;5.696;2023-11-21T03:31:46;10.9;74.6
78455;SHT31;67751;51.986;5.696;2023-11-21T03:34:26;10.9;74.1
78455;SHT31;67751;51.986;5.696;2023-11-21T03:36:55;10.9;74.5
78455;SHT31;67751;51.986;5.696;2023-11-21T03:39:26;11.0;74.7
78455;SHT31;67751;51.986;5.696;2023-11-21T03:41:56;11.0;75.1
78455;SHT31;67751;51.986;5.696;2023-11-21T03:44:26;11.0;75.1
78455;SHT31;67751;51.986;5.696;2023-11-21T03:46:55;11.0;75.0
78455;SHT31;67751;51.986;5.696;2023-11-21T03:49:25;11.0;74.8
78455;SHT31;67751;51.986;5.696;2023-11-21T03:51:56;11.0;75.4
78455;SHT31;67751;51.986;5.696;2023-11-21T03:54:26;11.0;75.4
78455;SHT31;67751;51.986;5.696;2023-11-21T03:56:55;11.0;75.4
78455;SHT31;67751;51.986;5.696;2023-11-21T03:59:25;11.0;75.5
78455;SHT31;67751;51.986;5.696;2023-11-21T04:01:57;11.0;75.6
78455;SHT31;67751;51.986;5.696;2023-11-21T04:04:26;11.1;75.5
78455;SHT31;67751;51.986;5.696;2023-11-21T04:06:56;11.1;75.2
78455;SHT31;67751;51.986;5.696;2023-11-21T04:09:25;11.1;75.3
78455;SHT31;67751;51.986;5.696;2023-11-21T04:11:55;11.1;75.6
78455;SHT31;67751;51.986;5.696;2023-11-21T04:14:27;11.1;75.6
78455;SHT31;67751;51.986;5.696;2023-11-21T04:16:56;11.1;75.7
78455;SHT31;67751;51.986;5.696;2023-11-21T04:19:28;11.1;75.7
78455;SHT31;67751;51.986;5.696;2023-11-21T04:21:58;11.1;75.9
78455;SHT31;67751;51.986;5.696;2023-11-21T04:24:27;11.1;75.9
78455;SHT31;67751;51.986;5.696;2023-11-21T04:26:57;11.1;76.0
78455;SHT31;67751;51.986;5.696;2023-11-21T04:29:26;11.1;76.0
78455;SHT31;67751;51.986;5.696;2023-11-21T04:31:56;11.1;76.2
78455;SHT31;67751;51.986;5.696;2023-11-21T04:34:25;11.1;76.3
78455;SHT31;67751;51.986;5.696;2023-11-21T04:36:57;11.1;76.2
78455;SHT31;67751;51.986;5.696;2023-11-21T04:39:27;11.1;76.5
78455;SHT31;67751;51.986;5.696;2023-11-21T04:41:57;11.0;76.5
78455;SHT31;67751;51.986;5.696;2023-11-21T04:44:26;11.1;76.7
78455;SHT31;67751;51.986;5.696;2023-11-21T04:46:56;11.1;76.4
78455;SHT31;67751;51.986;5.696;2023-11-21T04:49:25;11.1;76.5
78455;SHT31;67751;51.986;5.696;2023-11-21T04:51:57;11.1;76.6
78455;SHT31;67751;51.986;5.696;2023-11-21T04:54:26;11.1;76.4
78455;SHT31;67751;51.986;5.696;2023-11-21T04:56:56;11.1;76.5
78455;SHT31;67751;51.986;5.696;2023-11-21T04:59:28;11.1;76.4
78455;SHT31;67751;51.986;5.696;2023-11-21T05:01:57;11.1;76.4
78455;SHT31;67751;51.986;5.696;2023-11-21T05:04:27;11.2;76.4
78455;SHT31;67751;51.986;5.696;2023-11-21T05:06:57;11.2;76.4
78455;SHT31;67751;51.986;5.696;2023-11-21T05:09:28;11.2;76.3
78455;SHT31;67751;51.986;5.696;2023-11-21T05:11:59;11.2;76.6
78455;SHT31;67751;51.986;5.696;2023-11-21T05:14:31;11.2;76.6
78455;SHT31;67751;51.986;5.696;2023-11-21T05:17:00;11.2;76.4
78455;SHT31;67751;51.986;5.696;2023-11-21T05:19:31;11.2;76.2
78455;SHT31;67751;51.986;5.696;2023-11-21T05:22:02;11.2;76.4
78455;SHT31;67751;51.986;5.696;2023-11-21T05:24:33;11.2;76.4
78455;SHT31;67751;51.986;5.696;2023-11-21T05:27:02;11.3;76.5
78455;SHT31;67751;51.986;5.696;2023-11-21T05:29:32;11.3;76.6
78455;SHT31;67751;51.986;5.696;2023-11-21T05:32:02;11.3;76.6
78455;SHT31;67751;51.986;5.696;2023-11-21T05:34:31;11.3;76.6
78455;SHT31;67751;51.986;5.696;2023-11-21T05:37:01;11.3;76.6
78455;SHT31;67751;51.986;5.696;2023-11-21T05:39:33;11.3;76.5
78455;SHT31;67751;51.986;5.696;2023-11-21T05:42:03;11.3;76.5
78455;SHT31;67751;51.986;5.696;2023-11-21T05:44:33;11.3;76.4
78455;SHT31;67751;51.986;5.696;2023-11-21T05:47:03;11.3;76.8
78455;SHT31;67751;51.986;5.696;2023-11-21T05:49:34;11.3;76.8
78455;SHT31;67751;51.986;5.696;2023-11-21T05:52:05;11.4;76.7
78455;SHT31;67751;51.986;5.696;2023-11-21T05:54:34;11.4;76.8
78455;SHT31;67751;51.986;5.696;2023-11-21T05:57:04;11.4;76.8
78455;SHT31;67751;51.986;5.696;2023-11-21T05:59:34;11.4;76.8
78455;SHT31;67751;51.986;5.696;2023-11-21T06:02:03;11.4;76.8
78455;SHT31;67751;51.986;5.696;2023-11-21T06:04:35;11.4;76.6
78455;SHT31;67751;51.986;5.696;2023-11-21T06:07:04;11.4;76.8
78455;SHT31;67751;51.986;5.696;2023-11-21T06:09:34;11.4;77.0
78455;SHT31;67751;51.986;5.696;2023-11-21T06:12:05;11.4;77.0
78455;SHT31;67751;51.986;5.696;2023-11-21T06:14:35;11.4;77.0
78455;SHT31;67751;51.986;5.696;2023-11-21T06:17:04;11.4;76.9
78455;SHT31;67751;51.986;5.696;2023-11-21T06:19:34;11.4;77.2
78455;SHT31;67751;51.986;5.696;2023-11-21T06:22:04;11.4;77.2
78455;SHT31;67751;51.986;5.696;2023-11-21T06:24:33;11.4;77.3
78455;SHT31;67751;51.986;5.696;2023-11-21T06:27:04;11.4;77.6
78455;SHT31;67751;51.986;5.696;2023-11-21T06:29:34;11.4;77.4
78455;SHT31;67751;51.986;5.696;2023-11-21T06:32:04;11.4;77.5
78455;SHT31;67751;51.986;5.696;2023-11-21T06:34:34;11.4;77.6
78455;SHT31;67751;51.986;5.696;2023-11-21T06:37:04;11.4;77.5
78455;SHT31;67751;51.986;5.696;2023-11-21T06:39:33;11.4;77.6
78455;SHT31;67751;51.986;5.696;2023-11-21T06:42:03;11.4;77.5
78455;SHT31;67751;51.986;5.696;2023-11-21T06:44:33;11.4;77.5
78455;SHT31;67751;51.986;5.696;2023-11-21T06:47:05;11.4;77.6
78455;SHT31;67751;51.986;5.696;2023-11-21T06:49:34;11.4;77.6
78455;SHT31;67751;51.986;5.696;2023-11-21T06:52:05;11.4;77.5
78455;SHT31;67751;51.986;5.696;2023-11-21T06:54:36;11.4;77.5
78455;SHT31;67751;51.986;5.696;2023-11-21T06:57:06;11.4;77.5
78455;SHT31;67751;51.986;5.696;2023-11-21T06:59:36;11.5;77.4
78455;SHT31;67751;51.986;5.696;2023-11-21T07:02:06;11.5;77.4
78455;SHT31;67751;51.986;5.696;2023-11-21T07:04:37;11.5;77.3
78455;SHT31;67751;51.986;5.696;2023-11-21T07:07:06;11.5;77.4
78455;SHT31;67751;51.986;5.696;2023-11-21T07:09:38;11.5;77.5
78455;SHT31;67751;51.986;5.696;2023-11-21T07:12:08;11.5;77.7
78455;SHT31;67751;51.986;5.696;2023-11-21T07:14:38;11.5;77.5
78455;SHT31;67751;51.986;5.696;2023-11-21T07:17:10;11.5;77.6
78455;SHT31;67751;51.986;5.696;2023-11-21T07:19:41;11.5;77.7
78455;SHT31;67751;51.986;5.696;2023-11-21T07:22:10;11.6;77.7
78455;SHT31;67751;51.986;5.696;2023-11-21T07:24:43;11.6;77.2
78455;SHT31;67751;51.986;5.696;2023-11-21T07:27:13;11.6;77.3
78455;SHT31;67751;51.986;5.696;2023-11-21T07:29:42;11.6;77.4
78455;SHT31;67751;51.986;5.696;2023-11-21T07:32:12;11.6;77.4
78455;SHT31;67751;51.986;5.696;2023-11-21T07:34:42;11.6;77.3
78455;SHT31;67751;51.986;5.696;2023-11-21T07:37:12;11.6;77.2
78455;SHT31;67751;51.986;5.696;2023-11-21T07:39:41;11.7;77.3
78455;SHT31;67751;51.986;5.696;2023-11-21T07:42:13;11.7;77.3
78455;SHT31;67751;51.986;5.696;2023-11-21T07:44:44;11.7;77.5
78455;SHT31;67751;51.986;5.696;2023-11-21T07:47:13;11.7;77.5
78455;SHT31;67751;51.986;5.696;2023-11-21T07:49:43;11.7;77.5
78455;SHT31;67751;51.986;5.696;2023-11-21T07:52:14;11.7;77.5
78455;SHT31;67751;51.986;5.696;2023-11-21T07:54:44;11.7;77.5
78455;SHT31;67751;51.986;5.696;2023-11-21T07:57:13;11.7;77.6
78455;SHT31;67751;51.986;5.696;2023-11-21T07:59:43;11.7;77.6
78455;SHT31;67751;51.986;5.696;2023-11-21T08:02:13;11.7;77.6
78455;SHT31;67751;51.986;5.696;2023-11-21T08:04:43;11.8;77.6
78455;SHT31;67751;51.986;5.696;2023-11-21T08:07:16;11.8;77.6
78455;SHT31;67751;51.986;5.696;2023-11-21T08:09:46;11.8;77.7
78455;SHT31;67751;51.986;5.696;2023-11-21T08:12:17;11.8;77.3
78455;SHT31;67751;51.986;5.696;2023-11-21T08:14:47;11.8;77.3
78455;SHT31;67751;51.986;5.696;2023-11-21T08:17:17;11.8;77.5
78455;SHT31;67751;51.986;5.696;2023-11-21T08:19:47;11.8;77.4
78455;SHT31;67751;51.986;5.696;2023-11-21T08:22:18;11.8;77.5
78455;SHT31;67751;51.986;5.696;2023-11-21T08:24:48;11.9;77.4
78455;SHT31;67751;51.986;5.696;2023-11-21T08:27:18;11.9;77.5
78455;SHT31;67751;51.986;5.696;2023-11-21T08:29:47;11.9;77.5
78455;SHT31;67751;51.986;5.696;2023-11-21T08:32:18;11.9;77.6
78455;SHT31;67751;51.986;5.696;2023-11-21T08:34:47;11.9;77.5
78455;SHT31;67751;51.986;5.696;2023-11-21T08:37:18;11.9;77.5
78455;SHT31;67751;51.986;5.696;2023-11-21T08:39:48;11.9;77.7
78455;SHT31;67751;51.986;5.696;2023-11-21T08:42:17;12.0;77.8
78455;SHT31;67751;51.986;5.696;2023-11-21T08:44:47;12.0;77.9
78455;SHT31;67751;51.986;5.696;2023-11-21T08:47:16;12.0;78.0
78455;SHT31;67751;51.986;5.696;2023-11-21T08:49:46;12.0;77.8
78455;SHT31;67751;51.986;5.696;2023-11-21T08:52:17;12.0;77.8
78455;SHT31;67751;51.986;5.696;2023-11-21T08:54:48;12.0;77.8
78455;SHT31;67751;51.986;5.696;2023-11-21T08:57:23;12.0;77.9
78455;SHT31;67751;51.986;5.696;2023-11-21T08:59:52;12.0;77.8
78455;SHT31;67751;51.986;5.696;2023-11-21T09:02:23;12.0;77.9
78455;SHT31;67751;51.986;5.696;2023-11-21T09:04:53;12.0;78.0
78455;SHT31;67751;51.986;5.696;2023-11-21T09:07:22;12.0;78.1
78455;SHT31;67751;51.986;5.696;2023-11-21T09:09:52;12.0;78.2
78455;SHT31;67751;51.986;5.696;2023-11-21T09:12:22;12.0;78.2
78455;SHT31;67751;51.986;5.696;2023-11-21T09:14:52;12.1;78.2
78455;SHT31;67751;51.986;5.696;2023-11-21T09:17:23;12.1;78.3
78455;SHT31;67751;51.986;5.696;2023-11-21T09:19:53;12.1;78.3
78455;SHT31;67751;51.986;5.696;2023-11-21T09:22:24;12.1;78.3
78455;SHT31;67751;51.986;5.696;2023-11-21T09:24:54;12.1;78.3
78455;SHT31;67751;51.986;5.696;2023-11-21T09:27:25;12.1;78.2
78455;SHT31;67751;51.986;5.696;2023-11-21T09:29:55;12.1;78.4
78455;SHT31;67751;51.986;5.696;2023-11-21T09:32:25;12.1;78.5
78455;SHT31;67751;51.986;5.696;2023-11-21T09:34:55;12.2;78.7
78455;SHT31;67751;51.986;5.696;2023-11-21T09:37:25;12.2;78.8
78455;SHT31;67751;51.986;5.696;2023-11-21T09:39:56;12.2;78.9
78455;SHT31;67751;51.986;5.696;2023-11-21T09:42:31;12.2;79.0
78455;SHT31;67751;51.986;5.696;2023-11-21T09:45:12;12.2;79.2
78455;SHT31;67751;51.986;5.696;2023-11-21T09:47:44;12.2;79.1
78455;SHT31;67751;51.986;5.696;2023-11-21T09:50:17;12.2;79.3
78455;SHT31;67751;51.986;5.696;2023-11-21T09:52:57;12.2;79.4
78455;SHT31;67751;51.986;5.696;2023-11-21T09:55:28;12.3;79.3
78455;SHT31;67751;51.986;5.696;2023-11-21T09:58:04;12.3;79.6
78455;SHT31;67751;51.986;5.696;2023-11-21T10:00:35;12.3;80.0
78455;SHT31;67751;51.986;5.696;2023-11-21T10:03:05;12.3;79.8
78455;SHT31;67751;51.986;5.696;2023-11-21T10:05:34;12.4;80.2
78455;SHT31;67751;51.986;5.696;2023-11-21T10:08:07;12.4;80.2
78455;SHT31;67751;51.986;5.696;2023-11-21T10:10:38;12.4;80.3
78455;SHT31;67751;51.986;5.696;2023-11-21T10:13:13;12.4;80.0
78455;SHT31;67751;51.986;5.696;2023-11-21T10:15:44;12.4;79.7
78455;SHT31;67751;51.986;5.696;2023-11-21T10:18:18;12.4;79.6
78455;SHT31;67751;51.986;5.696;2023-11-21T10:20:52;12.4;79.3
78455;SHT31;67751;51.986;5.696;2023-11-21T10:23:22;12.4;79.4
78455;SHT31;67751;51.986;5.696;2023-11-21T10:25:52;12.4;79.6
78455;SHT31;67751;51.986;5.696;2023-11-21T10:28:22;12.4;79.4
78455;SHT31;67751;51.986;5.696;2023-11-21T10:30:54;12.4;79.3
78455;SHT31;67751;51.986;5.696;2023-11-21T10:33:28;12.5;79.4
78455;SHT31;67751;51.986;5.696;2023-11-21T10:35:58;12.5;79.3
78455;SHT31;67751;51.986;5.696;2023-11-21T10:38:33;12.5;79.3
78455;SHT31;67751;51.986;5.696;2023-11-21T10:41:11;12.5;79.3
78455;SHT31;67751;51.986;5.696;2023-11-21T10:43:43;12.5;79.3
78455;SHT31;67751;51.986;5.696;2023-11-21T10:46:13;12.5;79.2
78455;SHT31;67751;51.986;5.696;2023-11-21T10:48:43;12.5;79.0
78455;SHT31;67751;51.986;5.696;2023-11-21T10:51:14;12.5;79.1
78455;SHT31;67751;51.986;5.696;2023-11-21T10:53:46;12.5;79.0
78455;SHT31;67751;51.986;5.696;2023-11-21T10:56:19;12.5;79.0
78455;SHT31;67751;51.986;5.696;2023-11-21T10:58:50;12.6;78.9
78455;SHT31;67751;51.986;5.696;2023-11-21T11:01:21;12.6;78.9
78455;SHT31;67751;51.986;5.696;2023-11-21T11:03:54;12.6;79.0
78455;SHT31;67751;51.986;5.696;2023-11-21T11:06:26;12.6;79.0
78455;SHT31;67751;51.986;5.696;2023-11-21T11:09:01;12.6;78.8
78455;SHT31;67751;51.986;5.696;2023-11-21T11:11:32;12.6;78.6
78455;SHT31;67751;51.986;5.696;2023-11-21T11:14:03;12.6;78.7
78455;SHT31;67751;51.986;5.696;2023-11-21T11:16:34;12.6;78.7
78455;SHT31;67751;51.986;5.696;2023-11-21T11:19:03;12.6;78.3
78455;SHT31;67751;51.986;5.696;2023-11-21T11:21:45;12.6;78.3
78455;SHT31;67751;51.986;5.696;2023-11-21T11:24:41;12.5;78.5
78455;SHT31;67751;51.986;5.696;2023-11-21T11:27:23;12.5;78.5
78455;SHT31;67751;51.986;5.696;2023-11-21T11:30:03;12.5;78.6
78455;SHT31;67751;51.986;5.696;2023-11-21T11:32:43;12.5;78.8
78455;SHT31;67751;51.986;5.696;2023-11-21T11:35:22;12.5;78.9
78455;SHT31;67751;51.986;5.696;2023-11-21T11:37:53;12.5;78.7
78455;SHT31;67751;51.986;5.696;2023-11-21T11:40:22;12.5;78.7
78455;SHT31;67751;51.986;5.696;2023-11-21T11:43:00;12.5;78.5
78455;SHT31;67751;51.986;5.696;2023-11-21T11:45:34;12.5;78.7
78455;SHT31;67751;51.986;5.696;2023-11-21T11:48:11;12.5;78.9
78455;SHT31;67751;51.986;5.696;2023-11-21T11:51:02;12.5;79.2
78455;SHT31;67751;51.986;5.696;2023-11-21T11:53:38;12.5;79.4
78455;SHT31;67751;51.986;5.696;2023-11-21T11:56:22;12.5;79.2
78455;SHT31;67751;51.986;5.696;2023-11-21T11:58:54;12.5;79.4
78455;SHT31;67751;51.986;5.696;2023-11-21T12:01:26;12.5;79.6
78455;SHT31;67751;51.986;5.696;2023-11-21T12:04:27;12.5;79.4
78455;SHT31;67751;51.986;5.696;2023-11-21T12:07:05;12.5;79.3
78455;SHT31;67751;51.986;5.696;2023-11-21T12:09:37;12.5;79.4
78455;SHT31;67751;51.986;5.696;2023-11-21T12:12:10;12.5;79.1
78455;SHT31;67751;51.986;5.696;2023-11-21T12:14:40;12.5;78.9
78455;SHT31;67751;51.986;5.696;2023-11-21T12:17:10;12.5;78.9
78455;SHT31;67751;51.986;5.696;2023-11-21T12:19:40;12.5;78.9
78455;SHT31;67751;51.986;5.696;2023-11-21T12:22:11;12.5;78.8
78455;SHT31;67751;51.986;5.696;2023-11-21T12:24:41;12.5;79.1
78455;SHT31;67751;51.986;5.696;2023-11-21T12:27:11;12.6;79.4
78455;SHT31;67751;51.986;5.696;2023-11-21T12:29:42;12.6;79.5
78455;SHT31;67751;51.986;5.696;2023-11-21T12:32:12;12.6;79.1
78455;SHT31;67751;51.986;5.696;2023-11-21T12:34:43;12.6;79.4
78455;SHT31;67751;51.986;5.696;2023-11-21T12:37:14;12.6;79.2
78455;SHT31;67751;51.986;5.696;2023-11-21T12:39:44;12.6;78.9
78455;SHT31;67751;51.986;5.696;2023-11-21T12:42:14;12.6;78.6
78455;SHT31;67751;51.986;5.696;2023-11-21T12:44:46;12.6;78.9
78455;SHT31;67751;51.986;5.696;2023-11-21T12:47:20;12.6;78.8
78455;SHT31;67751;51.986;5.696;2023-11-21T12:49:52;12.6;78.5
78455;SHT31;67751;51.986;5.696;2023-11-21T12:52:23;12.6;78.6
78455;SHT31;67751;51.986;5.696;2023-11-21T12:54:52;12.6;78.0
78455;SHT31;67751;51.986;5.696;2023-11-21T12:57:26;12.6;78.0
78455;SHT31;67751;51.986;5.696;2023-11-21T12:59:58;12.6;78.2
78455;SHT31;67751;51.986;5.696;2023-11-21T13:02:36;12.6;78.2
78455;SHT31;67751;51.986;5.696;2023-11-21T13:05:09;12.6;78.1
78455;SHT31;67751;51.986;5.696;2023-11-21T13:07:46;12.6;78.2
78455;SHT31;67751;51.986;5.696;2023-11-21T13:10:17;12.5;78.3
78455;SHT31;67751;51.986;5.696;2023-11-21T13:12:47;12.5;78.4
78455;SHT31;67751;51.986;5.696;2023-11-21T13:15:19;12.5;78.3
78455;SHT31;67751;51.986;5.696;2023-11-21T13:17:50;12.5;78.3
78455;SHT31;67751;51.986;5.696;2023-11-21T13:20:21;12.5;78.8
78455;SHT31;67751;51.986;5.696;2023-11-21T13:22:56;12.5;78.9
78455;SHT31;67751;51.986;5.696;2023-11-21T13:25:27;12.5;78.8
78455;SHT31;67751;51.986;5.696;2023-11-21T13:27:58;12.5;78.6
78455;SHT31;67751;51.986;5.696;2023-11-21T13:30:30;12.6;78.6
78455;SHT31;67751;51.986;5.696;2023-11-21T13:33:02;12.6;78.6
78455;SHT31;67751;51.986;5.696;2023-11-21T13:35:35;12.6;78.4
78455;SHT31;67751;51.986;5.696;2023-11-21T13:38:11;12.6;78.7
78455;SHT31;67751;51.986;5.696;2023-11-21T13:40:41;12.6;78.7
78455;SHT31;67751;51.986;5.696;2023-11-21T13:43:13;12.6;78.4
78455;SHT31;67751;51.986;5.696;2023-11-21T13:45:44;12.6;78.5
78455;SHT31;67751;51.986;5.696;2023-11-21T13:48:14;12.6;78.0
78455;SHT31;67751;51.986;5.696;2023-11-21T13:50:48;12.6;77.7
78455;SHT31;67751;51.986;5.696;2023-11-21T13:53:23;12.6;78.2
78455;SHT31;67751;51.986;5.696;2023-11-21T13:55:54;12.6;77.6
78455;SHT31;67751;51.986;5.696;2023-11-21T13:58:25;12.7;77.7
78455;SHT31;67751;51.986;5.696;2023-11-21T14:01:00;12.7;78.0
78455;SHT31;67751;51.986;5.696;2023-11-21T14:03:33;12.7;78.0
78455;SHT31;67751;51.986;5.696;2023-11-21T14:06:10;12.7;77.5
78455;SHT31;67751;51.986;5.696;2023-11-21T14:08:44;12.7;77.2
78455;SHT31;67751;51.986;5.696;2023-11-21T14:11:14;12.7;77.3
78455;SHT31;67751;51.986;5.696;2023-11-21T14:13:45;12.7;77.1
78455;SHT31;67751;51.986;5.696;2023-11-21T14:16:16;12.7;76.7
78455;SHT31;67751;51.986;5.696;2023-11-21T14:18:46;12.7;76.2
78455;SHT31;67751;51.986;5.696;2023-11-21T14:21:24;12.7;76.2
78455;SHT31;67751;51.986;5.696;2023-11-21T14:23:54;12.6;76.2
78455;SHT31;67751;51.986;5.696;2023-11-21T14:26:24;12.6;76.0
78455;SHT31;67751;51.986;5.696;2023-11-21T14:28:54;12.6;76.1
78455;SHT31;67751;51.986;5.696;2023-11-21T14:31:24;12.6;76.6
78455;SHT31;67751;51.986;5.696;2023-11-21T14:33:56;12.5;76.6
78455;SHT31;67751;51.986;5.696;2023-11-21T14:36:28;12.5;76.5
78455;SHT31;67751;51.986;5.696;2023-11-21T14:38:58;12.5;76.2
78455;SHT31;67751;51.986;5.696;2023-11-21T14:41:27;12.5;76.4
78455;SHT31;67751;51.986;5.696;2023-11-21T14:43:57;12.5;76.5
78455;SHT31;67751;51.986;5.696;2023-11-21T14:46:27;12.5;76.2
78455;SHT31;67751;51.986;5.696;2023-11-21T14:48:56;12.4;76.8
78455;SHT31;67751;51.986;5.696;2023-11-21T14:51:34;12.4;76.3
78455;SHT31;67751;51.986;5.696;2023-11-21T14:54:09;12.4;76.2
78455;SHT31;67751;51.986;5.696;2023-11-21T14:56:39;12.4;76.3
78455;SHT31;67751;51.986;5.696;2023-11-21T14:59:12;12.3;76.5
78455;SHT31;67751;51.986;5.696;2023-11-21T15:01:43;12.3;76.1
78455;SHT31;67751;51.986;5.696;2023-11-21T15:04:19;12.3;75.9
78455;SHT31;67751;51.986;5.696;2023-11-21T15:06:55;12.2;74.7
78455;SHT31;67751;51.986;5.696;2023-11-21T15:09:26;12.2;74.8
78455;SHT31;67751;51.986;5.696;2023-11-21T15:12:08;12.2;75.5
78455;SHT31;67751;51.986;5.696;2023-11-21T15:14:46;12.1;75.5
78455;SHT31;67751;51.986;5.696;2023-11-21T15:17:20;12.1;74.9
78455;SHT31;67751;51.986;5.696;2023-11-21T15:19:54;12.1;74.8
78455;SHT31;67751;51.986;5.696;2023-11-21T15:22:23;12.0;75.0
78455;SHT31;67751;51.986;5.696;2023-11-21T15:24:55;12.0;75.9
78455;SHT31;67751;51.986;5.696;2023-11-21T15:27:25;12.0;74.8
78455;SHT31;67751;51.986;5.696;2023-11-21T15:29:54;11.9;73.9
78455;SHT31;67751;51.986;5.696;2023-11-21T15:32:25;11.9;73.7
78455;SHT31;67751;51.986;5.696;2023-11-21T15:34:54;11.9;73.9
78455;SHT31;67751;51.986;5.696;2023-11-21T15:37:24;11.8;73.6
78455;SHT31;67751;51.986;5.696;2023-11-21T15:39:56;11.8;73.9
78455;SHT31;67751;51.986;5.696;2023-11-21T15:42:25;11.8;73.5
78455;SHT31;67751;51.986;5.696;2023-11-21T15:44:55;11.7;73.7
78455;SHT31;67751;51.986;5.696;2023-11-21T15:47:24;11.7;73.2
78455;SHT31;67751;51.986;5.696;2023-11-21T15:49:54;11.7;73.6
78455;SHT31;67751;51.986;5.696;2023-11-21T15:52:23;11.6;72.4
78455;SHT31;67751;51.986;5.696;2023-11-21T15:54:53;11.6;73.6
78455;SHT31;67751;51.986;5.696;2023-11-21T15:57:23;11.6;74.4
78455;SHT31;67751;51.986;5.696;2023-11-21T15:59:53;11.5;73.8
78455;SHT31;67751;51.986;5.696;2023-11-21T16:02:23;11.5;73.5
78455;SHT31;67751;51.986;5.696;2023-11-21T16:04:52;11.5;73.7
78455;SHT31;67751;51.986;5.696;2023-11-21T16:07:22;11.5;73.9
78455;SHT31;67751;51.986;5.696;2023-11-21T16:09:52;11.5;73.9
78455;SHT31;67751;51.986;5.696;2023-11-21T16:12:22;11.5;73.9
78455;SHT31;67751;51.986;5.696;2023-11-21T16:14:51;11.5;72.3
78455;SHT31;67751;51.986;5.696;2023-11-21T16:17:23;11.5;71.9
78455;SHT31;67751;51.986;5.696;2023-11-21T16:19:52;11.5;70.1
78455;SHT31;67751;51.986;5.696;2023-11-21T16:22:23;11.4;70.4
78455;SHT31;67751;51.986;5.696;2023-11-21T16:24:55;11.4;71.7
78455;SHT31;67751;51.986;5.696;2023-11-21T16:27:25;11.4;71.0